| time (UTC) | temp F | wind direction | speed knots | gust knots | rain 1hr in | rain 24hr in | rain mn in | humidity % | barometer mb |
| 20260507153701 | 61 | 173 | 3.5 | 6.1 | 0.00 | 0.00 | 0.00 | 47 | 1016.2 |
| 20260507153157 | 60 | 114 | 3.5 | 7.8 | 0.00 | 0.00 | 0.00 | 48 | 1016.1 |
| 20260507152654 | 60 | 177 | 2.6 | 5.2 | 0.00 | 0.00 | 0.00 | 49 | 1016.4 |
| 20260507152149 | 60 | 247 | 3.5 | 6.1 | 0.00 | 0.00 | 0.00 | 51 | 1016.4 |
| 20260507151646 | 58 | 202 | 3.5 | 5.2 | 0.00 | 0.00 | 0.00 | 53 | 1016.5 |
| 20260507151143 | 58 | 222 | 3.5 | 6.1 | 0.00 | 0.00 | 0.00 | 52 | 1016.4 |
| 20260507150640 | 57 | 190 | 2.6 | 5.2 | 0.00 | 0.00 | 0.00 | 56 | 1016.3 |
| 20260507150136 | 57 | 184 | 1.7 | 3.5 | 0.00 | 0.00 | 0.00 | 57 | 1016.6 |
| 20260507145632 | 56 | 212 | 2.6 | 5.2 | 0.00 | 0.00 | 0.00 | 59 | 1016.7 |
| 20260507145130 | 55 | 159 | 0.9 | 7.8 | 0.00 | 0.00 | 0.00 | 61 | 1016.7 |
| 20260507144625 | 55 | 228 | 2.6 | 6.1 | 0.00 | 0.00 | 0.00 | 63 | 1016.6 |
| 20260507144124 | 54 | 220 | 2.6 | 5.2 | 0.00 | 0.00 | 0.00 | 65 | 1016.4 |
| 20260507143620 | 53 | 224 | 3.5 | 6.1 | 0.00 | 0.00 | 0.00 | 67 | 1016.8 |
| 20260507143118 | 53 | 173 | 2.6 | 3.5 | 0.00 | 0.00 | 0.00 | 70 | 1016.8 |
| 20260507142613 | 52 | 175 | 2.6 | 6.1 | 0.00 | 0.00 | 0.00 | 71 | 1016.8 |
| 20260507142110 | 51 | 157 | 1.7 | 6.1 | 0.00 | 0.00 | 0.00 | 74 | 1017.0 |
| 20260507141606 | 52 | 245 | 5.2 | 7.0 | 0.00 | 0.00 | 0.00 | 73 | 1016.8 |
| 20260507141103 | 51 | 164 | 2.6 | 3.5 | 0.00 | 0.00 | 0.00 | 75 | 1017.2 |
| 20260507140559 | 51 | 137 | 3.5 | 6.1 | 0.00 | 0.00 | 0.00 | 75 | 1017.0 |
| 20260507140057 | 50 | 186 | 2.6 | 6.1 | 0.00 | 0.00 | 0.00 | 77 | 1017.4 |
| 20260507135554 | 50 | 135 | 5.2 | 7.8 | 0.00 | 0.00 | 0.00 | 79 | 1017.4 |
| 20260507135051 | 49 | 170 | 0.9 | 2.6 | 0.00 | 0.00 | 0.00 | 81 | 1017.6 |
| 20260507134548 | 48 | 158 | 0.9 | 2.6 | 0.00 | 0.00 | 0.00 | 83 | 1017.6 |
| 20260507134043 | 47 | 191 | 1.7 | 1.7 | 0.00 | 0.00 | 0.00 | 83 | 1017.6 |
| 20260507133540 | 46 | 253 | 1.7 | 3.5 | 0.00 | 0.00 | 0.00 | 85 | 1017.7 |
| 20260507133038 | 45 | 171 | 1.7 | 3.5 | 0.00 | 0.00 | 0.00 | 87 | 1017.8 |
| 20260507132534 | 44 | 217 | 1.7 | 1.7 | 0.00 | 0.00 | 0.00 | 89 | 1017.6 |
| 20260507132031 | 43 | 167 | 1.7 | 2.6 | 0.00 | 0.00 | 0.00 | 91 | 1017.9 |
| 20260507131528 | 43 | 244 | 1.7 | 2.6 | 0.00 | 0.00 | 0.00 | 92 | 1017.8 |
| 20260507131025 | 42 | 173 | 0.9 | 1.7 | 0.00 | 0.00 | 0.00 | 93 | 1018.1 |
| 20260507130522 | 41 | 195 | 0.9 | 1.7 | 0.00 | 0.00 | 0.00 | 94 | 1018.0 |
| 20260507130020 | 40 | 197 | 1.7 | 2.6 | 0.00 | 0.00 | 0.00 | 95 | 1018.0 |
| 20260507125518 | 40 | 185 | 0.9 | 1.7 | 0.00 | 0.00 | 0.00 | 96 | 1018.0 |
| 20260507125015 | 39 | 196 | 0.0 | 1.7 | 0.00 | 0.00 | 0.00 | 96 | 1017.8 |
| 20260507124512 | 38 | 247 | 1.7 | 3.5 | 0.00 | 0.00 | 0.00 | 96 | 1017.8 |
| 20260507124009 | 38 | 151 | 1.7 | 3.5 | 0.00 | 0.00 | 0.00 | 96 | 1017.7 |
| 20260507123507 | 37 | 175 | 0.9 | 3.5 | 0.00 | 0.00 | 0.00 | 96 | 1018.0 |
| 20260507123003 | 37 | 204 | 1.7 | 2.6 | 0.00 | 0.00 | 0.00 | 96 | 1018.1 |
| 20260507122459 | 36 | 164 | 0.9 | 1.7 | 0.00 | 0.00 | 0.00 | 96 | 1018.0 |
| 20260507121955 | 35 | 178 | 0.9 | 0.9 | 0.00 | 0.00 | 0.00 | 96 | 1017.9 |
| 20260507121451 | 35 | 185 | 0.0 | 0.9 | 0.00 | 0.00 | 0.00 | 96 | 1018.0 |
| 20260507120947 | 35 | 170 | 0.0 | 0.9 | 0.00 | 0.00 | 0.00 | 96 | 1018.0 |
| 20260507120443 | 35 | 164 | 0.0 | 0.9 | 0.00 | 0.00 | 0.00 | 96 | 1018.1 |
| 20260507115940 | 35 | 167 | 0.0 | 1.7 | 0.00 | 0.00 | 0.00 | 96 | 1017.9 |
| 20260507115436 | 35 | 167 | 0.9 | 1.7 | 0.00 | 0.00 | 0.00 | 95 | 1018.1 |
| 20260507114932 | 35 | 167 | 0.0 | 0.0 | 0.00 | 0.00 | 0.00 | 95 | 1017.8 |
| 20260507114429 | 36 | 170 | 0.0 | 0.0 | 0.00 | 0.00 | 0.00 | 95 | 1018.2 |
| 20260507113926 | 36 | 165 | 0.0 | 0.9 | 0.00 | 0.00 | 0.00 | 96 | 1017.9 |
| 20260507113423 | 36 | 166 | 0.9 | 1.7 | 0.00 | 0.00 | 0.00 | 96 | 1018.0 |
| 20260507112921 | 36 | 169 | 0.9 | 2.6 | 0.00 | 0.00 | 0.00 | 96 | 1017.8 |
| 20260507112418 | 36 | 201 | 0.9 | 2.6 | 0.00 | 0.00 | 0.00 | 96 | 1018.0 |
| 20260507111915 | 36 | 165 | 0.9 | 1.7 | 0.00 | 0.00 | 0.00 | 96 | 1018.0 |
| 20260507111412 | 35 | 184 | 0.9 | 1.7 | 0.00 | 0.00 | 0.00 | 96 | 1018.0 |
| 20260507110908 | 35 | 182 | 0.0 | 0.9 | 0.00 | 0.00 | 0.00 | 96 | 1018.0 |
| 20260507110404 | 34 | 179 | 0.9 | 0.9 | 0.00 | 0.00 | 0.00 | 95 | 1018.1 |
| 20260507105901 | 34 | 166 | 0.0 | 0.0 | 0.00 | 0.00 | 0.00 | 95 | 1018.2 |
| 20260507105358 | 35 | 174 | 0.0 | 0.9 | 0.00 | 0.00 | 0.00 | 95 | 1018.1 |
| 20260507104855 | 35 | 179 | 0.9 | 0.9 | 0.00 | 0.00 | 0.00 | 95 | 1018.3 |
| 20260507104351 | 35 | 179 | 0.0 | 0.9 | 0.00 | 0.00 | 0.00 | 95 | 1018.3 |
| 20260507103847 | 35 | 179 | 0.9 | 0.9 | 0.00 | 0.00 | 0.00 | 95 | 1018.5 |
| 20260507103344 | 35 | 182 | 0.9 | 0.9 | 0.00 | 0.00 | 0.00 | 95 | 1018.5 |
| 20260507102840 | 36 | 173 | 0.9 | 0.9 | 0.00 | 0.00 | 0.00 | 95 | 1018.3 |
| 20260507102337 | 36 | 173 | 0.9 | 0.9 | 0.00 | 0.00 | 0.00 | 95 | 1018.3 |
| 20260507101834 | 36 | 214 | 1.7 | 3.5 | 0.00 | 0.00 | 0.00 | 95 | 1018.5 |
| 20260507101333 | 36 | 199 | 1.7 | 1.7 | 0.00 | 0.00 | 0.00 | 95 | 1018.5 |
| 20260507100831 | 37 | 223 | 2.6 | 2.6 | 0.00 | 0.00 | 0.00 | 95 | 1018.4 |
| 20260507100329 | 37 | 216 | 1.7 | 1.7 | 0.00 | 0.00 | 0.00 | 95 | 1018.4 |
| 20260507095827 | 38 | 167 | 0.9 | 1.7 | 0.00 | 0.00 | 0.00 | 95 | 1018.4 |
| 20260507095323 | 38 | 185 | 0.9 | 0.9 | 0.00 | 0.00 | 0.00 | 95 | 1018.4 |
| 20260507094820 | 38 | 172 | 0.0 | 0.9 | 0.00 | 0.00 | 0.00 | 95 | 1018.6 |
| 20260507094317 | 38 | 179 | 0.0 | 1.7 | 0.00 | 0.00 | 0.00 | 95 | 1018.6 |
| 20260507093814 | 37 | 190 | 0.9 | 2.6 | 0.00 | 0.00 | 0.00 | 95 | 1018.7 |
| 20260507093312 | 37 | 197 | 0.9 | 1.7 | 0.00 | 0.00 | 0.00 | 95 | 1018.6 |
| 20260507092810 | 37 | 228 | 1.7 | 1.7 | 0.00 | 0.00 | 0.00 | 95 | 1018.6 |
| 20260507092307 | 36 | 181 | 0.9 | 0.9 | 0.00 | 0.00 | 0.00 | 95 | 1018.6 |
| 20260507091803 | 36 | 173 | 0.9 | 1.7 | 0.00 | 0.00 | 0.00 | 95 | 1018.7 |
| 20260507091259 | 36 | 200 | 1.7 | 1.7 | 0.00 | 0.00 | 0.00 | 95 | 1018.9 |
| 20260507090759 | 35 | 163 | 0.0 | 0.9 | 0.00 | 0.00 | 0.00 | 94 | 1019.1 |
| 20260507090256 | 36 | 169 | 0.0 | 0.9 | 0.00 | 0.00 | 0.00 | 94 | 1018.9 |
| 20260507085753 | 36 | 188 | 0.9 | 0.9 | 0.00 | 0.00 | 0.00 | 94 | 1019.2 |
| 20260507085250 | 36 | 179 | 0.0 | 0.0 | 0.00 | 0.00 | 0.00 | 94 | 1019.1 |
| 20260507084747 | 36 | 173 | 0.0 | 0.0 | 0.00 | 0.00 | 0.00 | 94 | 1019.2 |
| 20260507084243 | 37 | 164 | 0.0 | 0.0 | 0.00 | 0.00 | 0.00 | 94 | 1019.3 |
| 20260507083741 | 37 | 169 | 0.0 | 0.0 | 0.00 | 0.00 | 0.00 | 94 | 1019.1 |
| 20260507083238 | 36 | 166 | 0.9 | 0.9 | 0.00 | 0.00 | 0.00 | 94 | 1019.3 |
| 20260507082734 | 37 | 165 | 0.0 | 0.0 | 0.00 | 0.00 | 0.00 | 94 | 1019.3 |
| 20260507082229 | 37 | 167 | 0.9 | 0.9 | 0.00 | 0.00 | 0.00 | 94 | 1019.3 |
| 20260507081727 | 37 | 177 | 0.0 | 0.0 | 0.00 | 0.00 | 0.00 | 93 | 1019.5 |
| 20260507081222 | 37 | 173 | 0.0 | 0.0 | 0.00 | 0.00 | 0.00 | 93 | 1019.6 |
| 20260507080719 | 37 | 167 | 0.0 | 0.0 | 0.00 | 0.00 | 0.00 | 93 | 1019.6 |
| 20260507080215 | 37 | 188 | 0.0 | 0.0 | 0.00 | 0.00 | 0.00 | 93 | 1019.8 |
| 20260507075711 | 37 | 166 | 0.0 | 0.0 | 0.00 | 0.00 | 0.00 | 93 | 1019.8 |
| 20260507075208 | 38 | 160 | 0.0 | 0.0 | 0.00 | 0.00 | 0.00 | 93 | 1020.0 |
| 20260507074704 | 38 | 159 | 0.0 | 0.0 | 0.00 | 0.00 | 0.00 | 92 | 1019.8 |
| 20260507074202 | 38 | 167 | 0.0 | 0.0 | 0.00 | 0.00 | 0.00 | 92 | 1020.0 |
| 20260507073658 | 39 | 171 | 0.0 | 0.0 | 0.00 | 0.00 | 0.00 | 92 | 1019.9 |
| 20260507073154 | 39 | 171 | 0.0 | 0.9 | 0.00 | 0.00 | 0.00 | 92 | 1020.0 |
| 20260507072653 | 39 | 173 | 0.0 | 0.0 | 0.00 | 0.00 | 0.00 | 92 | 1020.1 |
| 20260507072150 | 40 | 168 | 0.0 | 2.6 | 0.00 | 0.00 | 0.00 | 92 | 1020.2 |
| 20260507071648 | 40 | 171 | 0.9 | 2.6 | 0.00 | 0.00 | 0.00 | 92 | 1020.3 |
| 20260507071143 | 40 | 218 | 1.7 | 1.7 | 0.00 | 0.00 | 0.00 | 92 | 1020.4 |
| 20260507070641 | 40 | 194 | 1.7 | 1.7 | 0.00 | 0.00 | 0.00 | 92 | 1020.2 |
| 20260507070138 | 40 | 198 | 1.7 | 2.6 | 0.00 | 0.00 | 0.00 | 92 | 1020.3 |
| 20260507065634 | 40 | 194 | 1.7 | 2.6 | 0.00 | 0.00 | 0.00 | 91 | 1020.3 |
| 20260507065131 | 40 | 264 | 0.9 | 3.5 | 0.00 | 0.00 | 0.00 | 91 | 1020.3 |
| 20260507064628 | 40 | 194 | 0.9 | 3.5 | 0.00 | 0.00 | 0.00 | 91 | 1020.4 |
| 20260507064127 | 40 | 202 | 0.9 | 1.7 | 0.00 | 0.00 | 0.00 | 91 | 1020.4 |
| 20260507063624 | 40 | 202 | 1.7 | 1.7 | 0.00 | 0.00 | 0.00 | 91 | 1020.3 |
| 20260507063121 | 41 | 212 | 0.9 | 1.7 | 0.00 | 0.00 | 0.00 | 91 | 1020.2 |
| 20260507062617 | 41 | 215 | 1.7 | 1.7 | 0.00 | 0.00 | 0.00 | 91 | 1020.4 |
| 20260507062115 | 41 | 205 | 1.7 | 1.7 | 0.00 | 0.00 | 0.00 | 91 | 1020.6 |
| 20260507061613 | 41 | 193 | 1.7 | 1.7 | 0.00 | 0.00 | 0.00 | 91 | 1020.6 |
| 20260507061111 | 41 | 225 | 1.7 | 1.7 | 0.00 | 0.00 | 0.00 | 91 | 1020.6 |
| 20260507060609 | 41 | 199 | 0.9 | 1.7 | 0.00 | 0.00 | 0.00 | 91 | 1020.4 |
| 20260507060105 | 41 | 149 | 0.9 | 1.7 | 0.00 | 0.00 | 0.00 | 91 | 1020.6 |
| 20260507055600 | 41 | 185 | 0.9 | 0.9 | 0.00 | 0.00 | 0.00 | 91 | 1020.8 |
| 20260507055056 | 42 | 166 | 0.9 | 1.7 | 0.00 | 0.00 | 0.00 | 91 | 1020.8 |
| 20260507054553 | 42 | 181 | 1.7 | 3.5 | 0.00 | 0.00 | 0.00 | 91 | 1021.0 |
| 20260507054050 | 42 | 195 | 0.9 | 1.7 | 0.00 | 0.00 | 0.00 | 91 | 1020.9 |
| 20260507053548 | 42 | 209 | 0.9 | 1.7 | 0.00 | 0.00 | 0.00 | 91 | 1020.7 |
| 20260507053046 | 42 | 169 | 0.9 | 1.7 | 0.00 | 0.00 | 0.00 | 91 | 1021.1 |
| 20260507052543 | 42 | 206 | 1.7 | 2.6 | 0.00 | 0.00 | 0.00 | 91 | 1021.1 |
| 20260507052040 | 42 | 210 | 1.7 | 2.6 | 0.00 | 0.00 | 0.00 | 91 | 1021.1 |
| 20260507051538 | 42 | 229 | 0.9 | 2.6 | 0.00 | 0.00 | 0.00 | 91 | 1021.0 |
| 20260507051034 | 41 | 188 | 1.7 | 1.7 | 0.00 | 0.00 | 0.00 | 91 | 1021.1 |
| 20260507050531 | 41 | 161 | 0.9 | 1.7 | 0.00 | 0.00 | 0.00 | 90 | 1020.7 |
| 20260507050027 | 41 | 184 | 0.9 | 1.7 | 0.00 | 0.00 | 0.00 | 90 | 1020.8 |
| 20260507045524 | 41 | 161 | 0.9 | 1.7 | 0.00 | 0.14 | 0.14 | 90 | 1020.8 |
| 20260507045021 | 42 | 178 | 0.9 | 0.9 | 0.00 | 0.14 | 0.14 | 89 | 1020.9 |
| 20260507044518 | 42 | 225 | 1.7 | 2.6 | 0.00 | 0.14 | 0.14 | 89 | 1020.7 |
| 20260507044015 | 42 | 162 | 0.9 | 0.9 | 0.00 | 0.14 | 0.14 | 89 | 1020.8 |
| 20260507043511 | 42 | 163 | 0.9 | 2.6 | 0.00 | 0.14 | 0.14 | 88 | 1020.9 |
| 20260507043008 | 43 | 244 | 0.9 | 1.7 | 0.00 | 0.14 | 0.14 | 88 | 1020.9 |
| 20260507042504 | 43 | 188 | 0.9 | 1.7 | 0.00 | 0.14 | 0.14 | 88 | 1020.9 |
| 20260507041959 | 43 | 191 | 0.9 | 2.6 | 0.00 | 0.14 | 0.14 | 88 | 1020.9 |
| 20260507041457 | 43 | 194 | 1.7 | 1.7 | 0.00 | 0.14 | 0.14 | 88 | 1020.9 |
| 20260507040954 | 43 | 147 | 0.9 | 1.7 | 0.00 | 0.14 | 0.14 | 88 | 1021.1 |
| 20260507040449 | 42 | 200 | 1.7 | 2.6 | 0.00 | 0.14 | 0.14 | 88 | 1021.0 |
| 20260507035945 | 43 | 172 | 0.0 | 0.9 | 0.00 | 0.14 | 0.14 | 87 | 1020.9 |
| 20260507035442 | 43 | 186 | 0.9 | 0.9 | 0.00 | 0.14 | 0.14 | 86 | 1021.1 |
| 20260507034939 | 44 | 216 | 0.0 | 0.9 | 0.00 | 0.14 | 0.14 | 85 | 1020.9 |
| 20260507034436 | 44 | 208 | 0.9 | 1.7 | 0.00 | 0.14 | 0.14 | 85 | 1020.9 |
| 20260507033934 | 44 | 159 | 0.0 | 0.9 | 0.00 | 0.14 | 0.14 | 85 | 1020.8 |
| 20260507033432 | 45 | 168 | 0.0 | 0.0 | 0.00 | 0.14 | 0.14 | 84 | 1020.8 |
| 20260507032928 | 45 | 166 | 0.0 | 0.0 | 0.00 | 0.14 | 0.14 | 84 | 1020.4 |
| 20260507032425 | 46 | 166 | 0.0 | 0.0 | 0.00 | 0.14 | 0.14 | 83 | 1020.6 |
| 20260507031921 | 46 | 164 | 0.0 | 0.0 | 0.00 | 0.14 | 0.14 | 82 | 1020.3 |
| 20260507031418 | 46 | 162 | 0.0 | 0.9 | 0.00 | 0.14 | 0.14 | 82 | 1020.4 |
| 20260507030914 | 47 | 172 | 0.9 | 0.9 | 0.00 | 0.14 | 0.14 | 82 | 1020.6 |
| 20260507030412 | 47 | 169 | 0.0 | 0.0 | 0.00 | 0.14 | 0.14 | 82 | 1020.3 |
| 20260507025909 | 47 | 168 | 0.0 | 0.9 | 0.00 | 0.14 | 0.14 | 82 | 1020.2 |
| 20260507025406 | 47 | 170 | 0.0 | 0.0 | 0.00 | 0.14 | 0.14 | 82 | 1020.2 |
| 20260507024904 | 47 | 165 | 0.0 | 0.0 | 0.00 | 0.14 | 0.14 | 81 | 1020.3 |
| 20260507024401 | 48 | 164 | 0.0 | 0.0 | 0.00 | 0.14 | 0.14 | 80 | 1020.0 |
| 20260507023857 | 48 | 164 | 0.0 | 0.0 | 0.00 | 0.14 | 0.14 | 79 | 1020.2 |
| 20260507023354 | 48 | 164 | 0.0 | 0.0 | 0.00 | 0.14 | 0.14 | 79 | 1020.2 |
| 20260507022851 | 48 | 164 | 0.0 | 0.0 | 0.00 | 0.14 | 0.14 | 78 | 1020.2 |
| 20260507022348 | 48 | 171 | 0.0 | 0.0 | 0.00 | 0.14 | 0.14 | 77 | 1020.2 |
| 20260507021843 | 48 | 170 | 0.0 | 0.0 | 0.00 | 0.14 | 0.14 | 76 | 1020.2 |
| 20260507021339 | 48 | 166 | 0.0 | 0.0 | 0.00 | 0.14 | 0.14 | 76 | 1020.1 |
| 20260507020837 | 48 | 179 | 0.9 | 0.9 | 0.00 | 0.14 | 0.14 | 76 | 1020.3 |
| 20260507020333 | 49 | 168 | 0.0 | 0.0 | 0.00 | 0.14 | 0.14 | 75 | 1020.0 |
| 20260507015831 | 49 | 168 | 0.0 | 0.0 | 0.00 | 0.14 | 0.14 | 74 | 1019.8 |
| 20260507015329 | 49 | 150 | 0.0 | 0.0 | 0.00 | 0.14 | 0.14 | 71 | 1019.8 |
| 20260507014825 | 50 | 152 | 0.0 | 0.0 | 0.00 | 0.14 | 0.14 | 69 | 1019.8 |
| 20260507014322 | 50 | 163 | 0.0 | 0.0 | 0.00 | 0.14 | 0.14 | 68 | 1019.6 |
| 20260507013818 | 51 | 168 | 0.0 | 0.0 | 0.00 | 0.14 | 0.14 | 66 | 1019.8 |
| 20260507013315 | 51 | 176 | 0.0 | 0.9 | 0.00 | 0.14 | 0.14 | 66 | 1019.8 |
| 20260507012813 | 52 | 163 | 0.0 | 0.0 | 0.00 | 0.14 | 0.14 | 65 | 1019.7 |
| 20260507012308 | 52 | 176 | 0.0 | 0.9 | 0.00 | 0.14 | 0.14 | 64 | 1019.8 |
| 20260507011806 | 52 | 159 | 0.0 | 0.0 | 0.00 | 0.14 | 0.14 | 63 | 1019.6 |
| 20260507011302 | 52 | 162 | 0.0 | 0.0 | 0.00 | 0.14 | 0.14 | 62 | 1019.6 |
| 20260507010802 | 52 | 177 | 0.0 | 0.0 | 0.00 | 0.14 | 0.14 | 61 | 1019.5 |
| 20260507010258 | 52 | 166 | 0.0 | 0.9 | 0.00 | 0.14 | 0.14 | 61 | 1019.4 |
| 20260507005756 | 52 | 119 | 0.9 | 1.7 | 0.00 | 0.14 | 0.14 | 61 | 1019.4 |
| 20260507005252 | 52 | 173 | 0.0 | 0.9 | 0.00 | 0.14 | 0.14 | 61 | 1019.5 |
| 20260507004749 | 53 | 164 | 0.0 | 0.9 | 0.00 | 0.14 | 0.14 | 63 | 1019.5 |
| 20260507004246 | 53 | 169 | 0.0 | 0.9 | 0.00 | 0.14 | 0.14 | 63 | 1019.6 |
| 20260507003742 | 53 | 177 | 0.0 | 0.9 | 0.00 | 0.14 | 0.14 | 61 | 1019.5 |
| 20260507003238 | 53 | 186 | 0.0 | 0.9 | 0.00 | 0.14 | 0.14 | 59 | 1019.4 |
| 20260507002734 | 53 | 177 | 0.9 | 0.9 | 0.00 | 0.14 | 0.14 | 59 | 1019.3 |
| 20260507002230 | 53 | 171 | 0.0 | 1.7 | 0.00 | 0.14 | 0.14 | 59 | 1019.3 |
| 20260507001727 | 53 | 181 | 0.0 | 0.9 | 0.00 | 0.14 | 0.14 | 59 | 1019.2 |
| 20260507001225 | 53 | 168 | 0.0 | 0.0 | 0.00 | 0.14 | 0.14 | 59 | 1019.3 |
| 20260507000721 | 54 | 179 | 0.0 | 0.9 | 0.00 | 0.14 | 0.14 | 58 | 1019.2 |
| 20260507000216 | 54 | 251 | 0.9 | 1.7 | 0.00 | 0.14 | 0.14 | 56 | 1019.1 |
| 20260506235713 | 55 | 287 | 0.0 | 1.7 | 0.00 | 0.14 | 0.14 | 54 | 1019.3 |
| 20260506235209 | 56 | 184 | 0.0 | 1.7 | 0.00 | 0.14 | 0.14 | 52 | 1019.3 |
| 20260506234706 | 56 | 181 | 0.0 | 2.6 | 0.00 | 0.14 | 0.14 | 51 | 1019.4 |
| 20260506234203 | 55 | 268 | 2.6 | 5.2 | 0.00 | 0.14 | 0.14 | 51 | 1019.3 |
| 20260506233701 | 56 | 339 | 1.7 | 2.6 | 0.00 | 0.14 | 0.14 | 52 | 1019.4 |
| 20260506233157 | 56 | 157 | 0.0 | 2.6 | 0.00 | 0.14 | 0.14 | 52 | 1019.3 |
| 20260506232653 | 57 | 221 | 0.9 | 2.6 | 0.00 | 0.14 | 0.14 | 52 | 1019.3 |
| 20260506232149 | 57 | 110 | 0.9 | 1.7 | 0.00 | 0.14 | 0.14 | 51 | 1019.2 |
| 20260506231646 | 57 | 137 | 0.0 | 2.6 | 0.00 | 0.14 | 0.14 | 52 | 1019.3 |
| 20260506231145 | 56 | 189 | 1.7 | 2.6 | 0.00 | 0.14 | 0.14 | 53 | 1019.2 |
| 20260506230641 | 55 | 176 | 0.9 | 0.9 | 0.00 | 0.14 | 0.14 | 54 | 1019.3 |
| 20260506230138 | 55 | 315 | 0.9 | 2.6 | 0.00 | 0.14 | 0.14 | 55 | 1019.3 |
| 20260506225634 | 55 | 297 | 0.9 | 0.9 | 0.00 | 0.14 | 0.14 | 53 | 1019.5 |
| 20260506225131 | 56 | 143 | 0.0 | 2.6 | 0.00 | 0.14 | 0.14 | 51 | 1019.3 |
| 20260506224628 | 57 | 129 | 0.0 | 2.6 | 0.00 | 0.14 | 0.14 | 50 | 1019.5 |
| 20260506224124 | 58 | 348 | 2.6 | 5.2 | 0.00 | 0.14 | 0.14 | 49 | 1019.3 |
| 20260506223620 | 56 | 179 | 0.0 | 0.0 | 0.00 | 0.14 | 0.14 | 52 | 1019.3 |
| 20260506223116 | 56 | 218 | 0.9 | 1.7 | 0.00 | 0.14 | 0.14 | 52 | 1019.4 |
| 20260506222614 | 55 | 37 | 3.5 | 3.5 | 0.00 | 0.14 | 0.14 | 52 | 1019.4 |
| 20260506222110 | 54 | 281 | 0.9 | 5.2 | 0.00 | 0.14 | 0.14 | 55 | 1019.4 |
| 20260506221608 | 54 | 272 | 1.7 | 2.6 | 0.00 | 0.14 | 0.14 | 55 | 1019.4 |
| 20260506221106 | 55 | 337 | 2.6 | 5.2 | 0.00 | 0.14 | 0.14 | 56 | 1019.4 |
| 20260506220602 | 54 | 254 | 1.7 | 2.6 | 0.00 | 0.14 | 0.14 | 58 | 1019.4 |
| 20260506220057 | 54 | 173 | 1.7 | 5.2 | 0.00 | 0.14 | 0.14 | 58 | 1019.6 |
| 20260506215554 | 54 | 282 | 2.6 | 3.5 | 0.00 | 0.14 | 0.14 | 57 | 1019.6 |
| 20260506215049 | 53 | 279 | 0.9 | 3.5 | 0.00 | 0.14 | 0.14 | 57 | 1019.6 |
| 20260506214547 | 54 | 31 | 3.5 | 3.5 | 0.00 | 0.14 | 0.14 | 57 | 1019.6 |
| 20260506214044 | 53 | 225 | 0.9 | 3.5 | 0.00 | 0.14 | 0.14 | 52 | 1019.7 |
| 20260506213543 | 53 | 136 | 1.7 | 5.2 | 0.00 | 0.14 | 0.14 | 57 | 1019.9 |
| 20260506213040 | 54 | 343 | 2.6 | 3.5 | 0.00 | 0.14 | 0.14 | 59 | 1019.8 |
| 20260506212536 | 53 | 230 | 0.9 | 5.2 | 0.00 | 0.14 | 0.14 | 58 | 1019.6 |
| 20260506212030 | 54 | 9 | 2.6 | 5.2 | 0.00 | 0.14 | 0.14 | 59 | 1019.6 |
| 20260506211527 | 54 | 160 | 1.7 | 7.0 | 0.00 | 0.14 | 0.14 | 59 | 1019.8 |
| 20260506211024 | 54 | 342 | 2.6 | 7.8 | 0.00 | 0.14 | 0.14 | 57 | 1020.0 |
| 20260506210521 | 55 | 344 | 1.7 | 7.0 | 0.00 | 0.14 | 0.14 | 58 | 1019.9 |
| 20260506210017 | 55 | 35 | 3.5 | 3.5 | 0.00 | 0.14 | 0.14 | 60 | 1019.9 |
| 20260506205514 | 56 | 188 | 1.7 | 7.0 | 0.00 | 0.14 | 0.14 | 57 | 1020.0 |
| 20260506205009 | 55 | 257 | 2.6 | 2.6 | 0.00 | 0.14 | 0.14 | 58 | 1020.1 |
| 20260506204508 | 56 | 268 | 1.7 | 6.1 | 0.00 | 0.14 | 0.14 | 57 | 1020.1 |
| 20260506204004 | 55 | 156 | 0.0 | 0.9 | 0.00 | 0.14 | 0.14 | 56 | 1020.1 |
| 20260506203502 | 55 | 135 | 0.0 | 3.5 | 0.00 | 0.14 | 0.14 | 60 | 1020.2 |
| 20260506202959 | 54 | 291 | 1.7 | 2.6 | 0.00 | 0.14 | 0.14 | 61 | 1020.3 |
| 20260506202456 | 55 | 313 | 1.7 | 3.5 | 0.00 | 0.14 | 0.14 | 60 | 1020.3 |
| 20260506201952 | 54 | 153 | 0.0 | 3.5 | 0.00 | 0.14 | 0.14 | 62 | 1020.3 |
| 20260506201450 | 53 | 90 | 1.7 | 2.6 | 0.00 | 0.14 | 0.14 | 64 | 1020.4 |
| 20260506200946 | 53 | 102 | 0.0 | 2.6 | 0.00 | 0.14 | 0.14 | 63 | 1020.3 |
| 20260506200443 | 53 | 302 | 2.6 | 2.6 | 0.00 | 0.14 | 0.14 | 66 | 1020.3 |
| 20260506195939 | 52 | 98 | 1.7 | 3.5 | 0.00 | 0.14 | 0.14 | 67 | 1020.4 |
| 20260506195436 | 52 | 48 | 1.7 | 3.5 | 0.00 | 0.14 | 0.14 | 67 | 1020.3 |
| 20260506194933 | 52 | 2 | 3.5 | 6.1 | 0.00 | 0.14 | 0.14 | 67 | 1020.8 |
| 20260506194430 | 52 | 91 | 1.7 | 5.2 | 0.00 | 0.14 | 0.14 | 68 | 1020.6 |
| 20260506193927 | 51 | 320 | 5.2 | 6.1 | 0.00 | 0.14 | 0.14 | 68 | 1020.6 |
| 20260506193424 | 51 | 105 | 1.7 | 6.1 | 0.00 | 0.14 | 0.14 | 69 | 1020.7 |
| 20260506192920 | 51 | 326 | 3.5 | 5.2 | 0.00 | 0.14 | 0.14 | 70 | 1020.8 |
| 20260506192417 | 51 | 71 | 3.5 | 5.2 | 0.00 | 0.14 | 0.14 | 69 | 1020.8 |
| 20260506191914 | 52 | 268 | 1.7 | 5.2 | 0.00 | 0.14 | 0.14 | 68 | 1020.9 |
| 20260506191410 | 51 | 114 | 0.9 | 2.6 | 0.00 | 0.14 | 0.14 | 69 | 1020.9 |
| 20260506190908 | 51 | 157 | 1.7 | 3.5 | 0.00 | 0.14 | 0.14 | 70 | 1020.8 |
| 20260506190404 | 50 | 185 | 0.9 | 1.7 | 0.00 | 0.14 | 0.14 | 71 | 1021.0 |
| 20260506185901 | 51 | 34 | 2.6 | 3.5 | 0.00 | 0.14 | 0.14 | 71 | 1020.9 |
| 20260506185358 | 50 | 124 | 2.6 | 7.8 | 0.00 | 0.14 | 0.14 | 71 | 1021.1 |
| 20260506184855 | 50 | 181 | 1.7 | 6.1 | 0.00 | 0.14 | 0.14 | 72 | 1021.0 |
| 20260506184352 | 50 | 100 | 3.5 | 6.1 | 0.00 | 0.14 | 0.14 | 74 | 1021.2 |
| 20260506183849 | 50 | 176 | 2.6 | 5.2 | 0.00 | 0.14 | 0.14 | 74 | 1021.1 |
| 20260506183344 | 50 | 107 | 2.6 | 6.1 | 0.00 | 0.14 | 0.14 | 74 | 1021.2 |
| 20260506182842 | 50 | 96 | 1.7 | 3.5 | 0.00 | 0.14 | 0.14 | 72 | 1021.1 |
| 20260506182339 | 51 | 153 | 0.9 | 5.2 | 0.00 | 0.14 | 0.14 | 67 | 1021.2 |
| 20260506181836 | 51 | 67 | 0.0 | 7.0 | 0.00 | 0.14 | 0.14 | 68 | 1021.2 |
| 20260506181335 | 51 | 156 | 0.0 | 2.6 | 0.00 | 0.14 | 0.14 | 67 | 1021.1 |
| 20260506180831 | 51 | 128 | 0.0 | 0.9 | 0.00 | 0.14 | 0.14 | 68 | 1021.1 |
| 20260506180327 | 51 | 110 | 1.7 | 2.6 | 0.00 | 0.14 | 0.14 | 68 | 1021.2 |
| 20260506175824 | 51 | 326 | 2.6 | 3.5 | 0.00 | 0.14 | 0.14 | 66 | 1021.1 |
| 20260506175321 | 51 | 110 | 1.7 | 1.7 | 0.00 | 0.14 | 0.14 | 67 | 1021.1 |
| 20260506174818 | 51 | 107 | 0.0 | 2.6 | 0.00 | 0.14 | 0.14 | 66 | 1021.2 |
| 20260506174315 | 51 | 115 | 0.9 | 2.6 | 0.00 | 0.14 | 0.14 | 67 | 1021.3 |
| 20260506173812 | 50 | 140 | 0.0 | 1.7 | 0.00 | 0.14 | 0.14 | 71 | 1021.3 |
| 20260506173309 | 50 | 164 | 0.0 | 3.5 | 0.00 | 0.14 | 0.14 | 71 | 1021.2 |
| 20260506172806 | 50 | 348 | 0.0 | 1.7 | 0.00 | 0.14 | 0.14 | 69 | 1021.2 |
| 20260506172306 | 51 | 136 | 0.0 | 0.9 | 0.00 | 0.14 | 0.14 | 70 | 1021.2 |
| 20260506171800 | 50 | 93 | 0.0 | 2.6 | 0.00 | 0.14 | 0.14 | 73 | 1021.1 |
| 20260506171257 | 50 | 19 | 2.6 | 2.6 | 0.00 | 0.14 | 0.14 | 71 | 1021.3 |
| 20260506170755 | 50 | 94 | 2.6 | 5.2 | 0.00 | 0.14 | 0.14 | 73 | 1021.1 |
| 20260506170251 | 49 | 128 | 0.9 | 2.6 | 0.00 | 0.14 | 0.14 | 75 | 1021.3 |
| 20260506165750 | 49 | 39 | 3.5 | 6.1 | 0.00 | 0.14 | 0.14 | 76 | 1021.5 |
| 20260506165247 | 48 | 149 | 0.9 | 1.7 | 0.00 | 0.14 | 0.14 | 76 | 1021.2 |
| 20260506164744 | 47 | 143 | 0.0 | 0.9 | 0.00 | 0.14 | 0.14 | 77 | 1021.6 |
| 20260506164240 | 47 | 104 | 0.9 | 1.7 | 0.00 | 0.14 | 0.14 | 78 | 1021.4 |
| 20260506163737 | 47 | 23 | 1.7 | 3.5 | 0.00 | 0.14 | 0.14 | 79 | 1021.5 |
| 20260506163232 | 47 | 141 | 0.9 | 1.7 | 0.00 | 0.14 | 0.14 | 80 | 1021.2 |
| 20260506162728 | 46 | 157 | 0.0 | 1.7 | 0.00 | 0.14 | 0.14 | 82 | 1021.4 |
| 20260506162226 | 46 | 71 | 0.9 | 2.6 | 0.00 | 0.14 | 0.14 | 81 | 1021.4 |
| 20260506161723 | 46 | 130 | 0.9 | 3.5 | 0.00 | 0.14 | 0.14 | 81 | 1021.3 |
| 20260506161220 | 46 | 13 | 1.7 | 3.5 | 0.00 | 0.14 | 0.14 | 84 | 1021.3 |
| 20260506160718 | 46 | 130 | 1.7 | 2.6 | 0.00 | 0.14 | 0.14 | 84 | 1021.1 |
| 20260506160214 | 46 | 148 | 0.9 | 3.5 | 0.00 | 0.14 | 0.14 | 84 | 1021.0 |
| 20260506155713 | 46 | 138 | 0.0 | 1.7 | 0.00 | 0.14 | 0.14 | 86 | 1021.0 |
| 20260506155210 | 45 | 143 | 0.0 | 2.6 | 0.00 | 0.14 | 0.14 | 87 | 1020.8 |